sensor_id;sensor_type;location;lat;lon;timestamp;P1;durP1;ratioP1;P2;durP2;ratioP2
2656;SDS011;1338;48.176;11.792;2023-04-24T00:01:45;2.43;;;2.30;;
2656;SDS011;1338;48.176;11.792;2023-04-24T00:04:13;2.50;;;2.30;;
2656;SDS011;1338;48.176;11.792;2023-04-24T00:06:44;3.30;;;2.57;;
2656;SDS011;1338;48.176;11.792;2023-04-24T00:09:16;2.60;;;2.40;;
2656;SDS011;1338;48.176;11.792;2023-04-24T00:11:44;2.70;;;2.50;;
2656;SDS011;1338;48.176;11.792;2023-04-24T00:14:12;3.00;;;2.70;;
2656;SDS011;1338;48.176;11.792;2023-04-24T00:16:40;2.37;;;2.17;;
2656;SDS011;1338;48.176;11.792;2023-04-24T00:19:08;2.87;;;2.57;;
2656;SDS011;1338;48.176;11.792;2023-04-24T00:21:38;2.33;;;2.13;;
2656;SDS011;1338;48.176;11.792;2023-04-24T00:24:08;2.20;;;2.10;;
2656;SDS011;1338;48.176;11.792;2023-04-24T00:26:37;10.63;;;2.70;;
2656;SDS011;1338;48.176;11.792;2023-04-24T00:29:05;2.83;;;2.63;;
2656;SDS011;1338;48.176;11.792;2023-04-24T00:31:33;2.77;;;2.40;;
2656;SDS011;1338;48.176;11.792;2023-04-24T00:34:03;2.40;;;2.20;;
2656;SDS011;1338;48.176;11.792;2023-04-24T00:36:31;2.83;;;2.60;;
2656;SDS011;1338;48.176;11.792;2023-04-24T00:38:59;2.63;;;2.43;;
2656;SDS011;1338;48.176;11.792;2023-04-24T00:41:30;3.03;;;2.67;;
2656;SDS011;1338;48.176;11.792;2023-04-24T00:43:58;2.50;;;2.30;;
2656;SDS011;1338;48.176;11.792;2023-04-24T00:46:26;2.77;;;2.57;;
2656;SDS011;1338;48.176;11.792;2023-04-24T00:48:54;2.70;;;2.50;;
2656;SDS011;1338;48.176;11.792;2023-04-24T00:51:23;2.60;;;2.40;;
2656;SDS011;1338;48.176;11.792;2023-04-24T00:53:52;2.90;;;2.70;;
2656;SDS011;1338;48.176;11.792;2023-04-24T00:56:20;2.60;;;2.40;;
2656;SDS011;1338;48.176;11.792;2023-04-24T00:58:49;2.90;;;2.30;;
2656;SDS011;1338;48.176;11.792;2023-04-24T01:01:17;2.27;;;2.07;;
2656;SDS011;1338;48.176;11.792;2023-04-24T01:03:51;2.40;;;2.20;;
2656;SDS011;1338;48.176;11.792;2023-04-24T01:06:21;2.23;;;2.03;;
2656;SDS011;1338;48.176;11.792;2023-04-24T01:08:51;2.33;;;2.13;;
2656;SDS011;1338;48.176;11.792;2023-04-24T01:11:19;2.10;;;1.90;;
2656;SDS011;1338;48.176;11.792;2023-04-24T01:13:50;4.20;;;2.60;;
2656;SDS011;1338;48.176;11.792;2023-04-24T01:16:18;3.90;;;2.70;;
2656;SDS011;1338;48.176;11.792;2023-04-24T01:18:47;2.97;;;2.17;;
2656;SDS011;1338;48.176;11.792;2023-04-24T01:21:17;2.03;;;1.93;;
2656;SDS011;1338;48.176;11.792;2023-04-24T01:23:51;2.40;;;2.30;;
2656;SDS011;1338;48.176;11.792;2023-04-24T01:26:19;2.10;;;2.00;;
2656;SDS011;1338;48.176;11.792;2023-04-24T01:28:47;1.90;;;1.80;;
2656;SDS011;1338;48.176;11.792;2023-04-24T01:31:15;2.03;;;1.93;;
2656;SDS011;1338;48.176;11.792;2023-04-24T01:33:44;2.50;;;2.30;;
2656;SDS011;1338;48.176;11.792;2023-04-24T01:36:12;1.93;;;1.80;;
2656;SDS011;1338;48.176;11.792;2023-04-24T01:38:41;2.10;;;1.70;;
2656;SDS011;1338;48.176;11.792;2023-04-24T01:41:12;1.87;;;1.70;;
2656;SDS011;1338;48.176;11.792;2023-04-24T01:43:40;2.03;;;1.90;;
2656;SDS011;1338;48.176;11.792;2023-04-24T01:46:08;1.90;;;1.63;;
2656;SDS011;1338;48.176;11.792;2023-04-24T01:48:37;2.80;;;1.90;;
2656;SDS011;1338;48.176;11.792;2023-04-24T01:51:05;2.13;;;1.50;;
2656;SDS011;1338;48.176;11.792;2023-04-24T01:53:33;1.90;;;1.80;;
2656;SDS011;1338;48.176;11.792;2023-04-24T01:56:02;2.10;;;1.97;;
2656;SDS011;1338;48.176;11.792;2023-04-24T01:58:31;2.70;;;1.60;;
2656;SDS011;1338;48.176;11.792;2023-04-24T02:01:01;1.73;;;1.63;;
2656;SDS011;1338;48.176;11.792;2023-04-24T02:03:29;5.00;;;1.43;;
2656;SDS011;1338;48.176;11.792;2023-04-24T02:05:57;1.50;;;1.40;;
2656;SDS011;1338;48.176;11.792;2023-04-24T02:08:26;1.73;;;1.63;;
2656;SDS011;1338;48.176;11.792;2023-04-24T02:10:54;1.70;;;1.60;;
2656;SDS011;1338;48.176;11.792;2023-04-24T02:13:23;2.80;;;1.63;;
2656;SDS011;1338;48.176;11.792;2023-04-24T02:15:53;1.77;;;1.40;;
2656;SDS011;1338;48.176;11.792;2023-04-24T02:18:22;1.53;;;1.43;;
2656;SDS011;1338;48.176;11.792;2023-04-24T02:20:50;1.50;;;1.40;;
2656;SDS011;1338;48.176;11.792;2023-04-24T02:23:19;2.80;;;1.70;;
2656;SDS011;1338;48.176;11.792;2023-04-24T02:25:47;2.03;;;1.43;;
2656;SDS011;1338;48.176;11.792;2023-04-24T02:28:16;1.67;;;1.57;;
2656;SDS011;1338;48.176;11.792;2023-04-24T02:30:44;1.50;;;1.40;;
2656;SDS011;1338;48.176;11.792;2023-04-24T02:33:14;1.70;;;1.60;;
2656;SDS011;1338;48.176;11.792;2023-04-24T02:35:42;1.40;;;1.30;;
2656;SDS011;1338;48.176;11.792;2023-04-24T02:38:10;1.53;;;1.30;;
2656;SDS011;1338;48.176;11.792;2023-04-24T02:40:38;1.57;;;1.47;;
2656;SDS011;1338;48.176;11.792;2023-04-24T02:43:09;1.73;;;1.63;;
2656;SDS011;1338;48.176;11.792;2023-04-24T02:45:37;1.43;;;1.33;;
2656;SDS011;1338;48.176;11.792;2023-04-24T02:48:05;1.60;;;1.50;;
2656;SDS011;1338;48.176;11.792;2023-04-24T02:50:34;3.17;;;1.77;;
2656;SDS011;1338;48.176;11.792;2023-04-24T02:53:03;1.60;;;1.50;;
2656;SDS011;1338;48.176;11.792;2023-04-24T02:55:31;1.50;;;1.40;;
2656;SDS011;1338;48.176;11.792;2023-04-24T02:57:59;1.60;;;1.50;;
2656;SDS011;1338;48.176;11.792;2023-04-24T03:00:28;1.77;;;1.27;;
2656;SDS011;1338;48.176;11.792;2023-04-24T03:02:56;1.43;;;1.33;;
2656;SDS011;1338;48.176;11.792;2023-04-24T03:05:24;1.80;;;1.70;;
2656;SDS011;1338;48.176;11.792;2023-04-24T03:07:55;1.87;;;1.67;;
2656;SDS011;1338;48.176;11.792;2023-04-24T03:10:23;1.53;;;1.43;;
2656;SDS011;1338;48.176;11.792;2023-04-24T03:12:51;1.37;;;1.27;;
2656;SDS011;1338;48.176;11.792;2023-04-24T03:15:19;1.80;;;1.70;;
2656;SDS011;1338;48.176;11.792;2023-04-24T03:17:47;1.60;;;1.50;;
2656;SDS011;1338;48.176;11.792;2023-04-24T03:20:15;2.03;;;1.50;;
2656;SDS011;1338;48.176;11.792;2023-04-24T03:22:43;2.07;;;1.87;;
2656;SDS011;1338;48.176;11.792;2023-04-24T03:25:13;1.93;;;1.83;;
2656;SDS011;1338;48.176;11.792;2023-04-24T03:27:41;1.83;;;1.73;;
2656;SDS011;1338;48.176;11.792;2023-04-24T03:30:39;1.90;;;1.80;;
2656;SDS011;1338;48.176;11.792;2023-04-24T03:33:08;1.60;;;1.50;;
2656;SDS011;1338;48.176;11.792;2023-04-24T03:35:43;1.63;;;1.53;;
2656;SDS011;1338;48.176;11.792;2023-04-24T03:38:11;5.40;;;2.00;;
2656;SDS011;1338;48.176;11.792;2023-04-24T03:40:44;2.33;;;1.50;;
2656;SDS011;1338;48.176;11.792;2023-04-24T03:43:30;1.73;;;1.63;;
2656;SDS011;1338;48.176;11.792;2023-04-24T03:46:00;1.80;;;1.70;;
2656;SDS011;1338;48.176;11.792;2023-04-24T03:48:31;1.67;;;1.57;;
2656;SDS011;1338;48.176;11.792;2023-04-24T03:51:00;1.70;;;1.60;;
2656;SDS011;1338;48.176;11.792;2023-04-24T03:53:30;2.20;;;1.47;;
2656;SDS011;1338;48.176;11.792;2023-04-24T03:56:00;1.70;;;1.60;;
2656;SDS011;1338;48.176;11.792;2023-04-24T03:58:29;1.93;;;1.70;;
2656;SDS011;1338;48.176;11.792;2023-04-24T04:00:57;2.30;;;1.70;;
2656;SDS011;1338;48.176;11.792;2023-04-24T04:03:46;2.03;;;1.70;;
2656;SDS011;1338;48.176;11.792;2023-04-24T04:06:18;1.80;;;1.70;;
2656;SDS011;1338;48.176;11.792;2023-04-24T04:08:49;1.93;;;1.83;;
2656;SDS011;1338;48.176;11.792;2023-04-24T04:11:19;1.60;;;1.50;;
2656;SDS011;1338;48.176;11.792;2023-04-24T04:13:47;1.80;;;1.70;;
2656;SDS011;1338;48.176;11.792;2023-04-24T04:16:18;2.23;;;1.90;;
2656;SDS011;1338;48.176;11.792;2023-04-24T04:18:48;2.57;;;1.93;;
2656;SDS011;1338;48.176;11.792;2023-04-24T04:21:16;2.13;;;1.87;;
2656;SDS011;1338;48.176;11.792;2023-04-24T04:23:46;1.90;;;1.60;;
2656;SDS011;1338;48.176;11.792;2023-04-24T04:26:22;1.90;;;1.80;;
2656;SDS011;1338;48.176;11.792;2023-04-24T04:29:02;1.70;;;1.60;;
2656;SDS011;1338;48.176;11.792;2023-04-24T04:31:32;2.10;;;1.70;;
2656;SDS011;1338;48.176;11.792;2023-04-24T04:34:05;2.50;;;1.80;;
2656;SDS011;1338;48.176;11.792;2023-04-24T04:36:34;2.20;;;2.00;;
2656;SDS011;1338;48.176;11.792;2023-04-24T04:39:26;1.93;;;1.80;;
2656;SDS011;1338;48.176;11.792;2023-04-24T04:42:06;2.20;;;2.00;;
2656;SDS011;1338;48.176;11.792;2023-04-24T04:44:39;2.57;;;1.60;;
2656;SDS011;1338;48.176;11.792;2023-04-24T04:47:10;3.40;;;1.83;;
2656;SDS011;1338;48.176;11.792;2023-04-24T04:49:40;2.40;;;2.20;;
2656;SDS011;1338;48.176;11.792;2023-04-24T04:52:19;2.27;;;1.90;;
2656;SDS011;1338;48.176;11.792;2023-04-24T04:54:57;1.90;;;1.80;;
2656;SDS011;1338;48.176;11.792;2023-04-24T04:57:37;2.30;;;2.10;;
2656;SDS011;1338;48.176;11.792;2023-04-24T05:00:06;2.10;;;1.90;;
2656;SDS011;1338;48.176;11.792;2023-04-24T05:02:44;1.90;;;1.80;;
2656;SDS011;1338;48.176;11.792;2023-04-24T05:05:15;2.80;;;1.70;;
2656;SDS011;1338;48.176;11.792;2023-04-24T05:07:44;1.60;;;1.50;;
2656;SDS011;1338;48.176;11.792;2023-04-24T05:10:12;1.70;;;1.60;;
2656;SDS011;1338;48.176;11.792;2023-04-24T05:12:42;1.90;;;1.80;;
2656;SDS011;1338;48.176;11.792;2023-04-24T05:15:11;1.87;;;1.77;;
2656;SDS011;1338;48.176;11.792;2023-04-24T05:17:40;1.90;;;1.80;;
2656;SDS011;1338;48.176;11.792;2023-04-24T05:20:09;1.50;;;1.40;;
2656;SDS011;1338;48.176;11.792;2023-04-24T05:22:37;1.90;;;1.67;;
2656;SDS011;1338;48.176;11.792;2023-04-24T05:25:06;1.90;;;1.80;;
2656;SDS011;1338;48.176;11.792;2023-04-24T05:27:52;2.40;;;1.50;;
2656;SDS011;1338;48.176;11.792;2023-04-24T05:30:22;1.73;;;1.63;;
2656;SDS011;1338;48.176;11.792;2023-04-24T05:32:50;3.40;;;1.90;;
2656;SDS011;1338;48.176;11.792;2023-04-24T05:35:18;1.87;;;1.77;;
2656;SDS011;1338;48.176;11.792;2023-04-24T05:37:46;1.80;;;1.70;;
2656;SDS011;1338;48.176;11.792;2023-04-24T05:40:16;1.50;;;1.40;;
2656;SDS011;1338;48.176;11.792;2023-04-24T05:42:44;1.70;;;1.60;;
2656;SDS011;1338;48.176;11.792;2023-04-24T05:45:13;2.07;;;1.70;;
2656;SDS011;1338;48.176;11.792;2023-04-24T05:47:43;1.70;;;1.60;;
2656;SDS011;1338;48.176;11.792;2023-04-24T05:50:11;1.57;;;1.47;;
2656;SDS011;1338;48.176;11.792;2023-04-24T05:52:40;1.70;;;1.60;;
2656;SDS011;1338;48.176;11.792;2023-04-24T05:55:22;4.27;;;1.50;;
2656;SDS011;1338;48.176;11.792;2023-04-24T05:57:51;1.60;;;1.50;;
2656;SDS011;1338;48.176;11.792;2023-04-24T06:00:21;1.60;;;1.50;;
2656;SDS011;1338;48.176;11.792;2023-04-24T06:02:59;1.60;;;1.50;;
2656;SDS011;1338;48.176;11.792;2023-04-24T06:05:30;1.50;;;1.40;;
2656;SDS011;1338;48.176;11.792;2023-04-24T06:08:01;1.87;;;1.77;;
2656;SDS011;1338;48.176;11.792;2023-04-24T06:10:34;2.47;;;1.70;;
2656;SDS011;1338;48.176;11.792;2023-04-24T06:13:04;1.30;;;1.20;;
2656;SDS011;1338;48.176;11.792;2023-04-24T06:15:36;1.60;;;1.13;;
2656;SDS011;1338;48.176;11.792;2023-04-24T06:18:31;2.10;;;1.70;;
2656;SDS011;1338;48.176;11.792;2023-04-24T06:20:59;1.50;;;1.40;;
2656;SDS011;1338;48.176;11.792;2023-04-24T06:23:28;1.93;;;1.40;;
2656;SDS011;1338;48.176;11.792;2023-04-24T06:25:58;1.43;;;1.33;;
2656;SDS011;1338;48.176;11.792;2023-04-24T06:28:27;1.77;;;1.53;;
2656;SDS011;1338;48.176;11.792;2023-04-24T06:30:56;1.30;;;1.20;;
2656;SDS011;1338;48.176;11.792;2023-04-24T06:33:25;1.50;;;1.40;;
2656;SDS011;1338;48.176;11.792;2023-04-24T06:35:53;1.40;;;1.30;;
2656;SDS011;1338;48.176;11.792;2023-04-24T06:38:21;1.33;;;1.23;;
2656;SDS011;1338;48.176;11.792;2023-04-24T06:40:49;1.53;;;1.43;;
2656;SDS011;1338;48.176;11.792;2023-04-24T06:43:18;1.60;;;1.47;;
2656;SDS011;1338;48.176;11.792;2023-04-24T06:45:46;1.47;;;1.37;;
2656;SDS011;1338;48.176;11.792;2023-04-24T06:48:16;1.30;;;1.20;;
2656;SDS011;1338;48.176;11.792;2023-04-24T06:50:44;1.40;;;1.30;;
2656;SDS011;1338;48.176;11.792;2023-04-24T06:53:13;1.50;;;1.40;;
2656;SDS011;1338;48.176;11.792;2023-04-24T06:55:41;1.53;;;1.43;;
2656;SDS011;1338;48.176;11.792;2023-04-24T06:58:11;1.37;;;1.27;;
2656;SDS011;1338;48.176;11.792;2023-04-24T07:00:40;3.97;;;1.20;;
2656;SDS011;1338;48.176;11.792;2023-04-24T07:03:08;1.97;;;1.40;;
2656;SDS011;1338;48.176;11.792;2023-04-24T07:05:38;1.40;;;1.30;;
2656;SDS011;1338;48.176;11.792;2023-04-24T07:08:06;1.70;;;1.60;;
2656;SDS011;1338;48.176;11.792;2023-04-24T07:10:37;1.60;;;1.50;;
2656;SDS011;1338;48.176;11.792;2023-04-24T07:13:05;1.50;;;1.40;;
2656;SDS011;1338;48.176;11.792;2023-04-24T07:15:34;3.13;;;1.47;;
2656;SDS011;1338;48.176;11.792;2023-04-24T07:18:03;1.73;;;1.40;;
2656;SDS011;1338;48.176;11.792;2023-04-24T07:20:31;1.43;;;1.33;;
2656;SDS011;1338;48.176;11.792;2023-04-24T07:23:01;1.67;;;1.30;;
2656;SDS011;1338;48.176;11.792;2023-04-24T07:25:29;3.50;;;1.27;;
2656;SDS011;1338;48.176;11.792;2023-04-24T07:27:58;1.63;;;1.23;;
2656;SDS011;1338;48.176;11.792;2023-04-24T07:30:26;1.67;;;1.57;;
2656;SDS011;1338;48.176;11.792;2023-04-24T07:32:55;1.60;;;1.50;;
2656;SDS011;1338;48.176;11.792;2023-04-24T07:35:23;1.93;;;1.50;;
2656;SDS011;1338;48.176;11.792;2023-04-24T07:37:52;1.20;;;1.10;;
2656;SDS011;1338;48.176;11.792;2023-04-24T07:40:21;2.50;;;1.60;;
2656;SDS011;1338;48.176;11.792;2023-04-24T07:42:50;1.20;;;1.10;;
2656;SDS011;1338;48.176;11.792;2023-04-24T07:45:18;1.43;;;1.27;;
2656;SDS011;1338;48.176;11.792;2023-04-24T07:47:46;1.40;;;1.27;;
2656;SDS011;1338;48.176;11.792;2023-04-24T07:50:15;2.43;;;1.57;;
2656;SDS011;1338;48.176;11.792;2023-04-24T07:52:43;1.50;;;1.23;;
2656;SDS011;1338;48.176;11.792;2023-04-24T07:55:11;1.87;;;1.53;;
2656;SDS011;1338;48.176;11.792;2023-04-24T07:57:40;1.50;;;1.40;;
2656;SDS011;1338;48.176;11.792;2023-04-24T08:00:09;1.50;;;1.40;;
2656;SDS011;1338;48.176;11.792;2023-04-24T08:02:38;1.73;;;1.63;;
2656;SDS011;1338;48.176;11.792;2023-04-24T08:05:06;1.80;;;1.70;;
2656;SDS011;1338;48.176;11.792;2023-04-24T08:07:35;2.73;;;1.43;;
2656;SDS011;1338;48.176;11.792;2023-04-24T08:10:04;1.97;;;1.33;;
2656;SDS011;1338;48.176;11.792;2023-04-24T08:12:32;1.93;;;1.40;;
2656;SDS011;1338;48.176;11.792;2023-04-24T08:15:02;2.13;;;1.40;;
2656;SDS011;1338;48.176;11.792;2023-04-24T08:17:31;1.50;;;1.40;;
2656;SDS011;1338;48.176;11.792;2023-04-24T08:19:59;1.60;;;1.50;;
2656;SDS011;1338;48.176;11.792;2023-04-24T08:22:28;1.50;;;1.40;;
2656;SDS011;1338;48.176;11.792;2023-04-24T08:24:56;1.50;;;1.40;;
2656;SDS011;1338;48.176;11.792;2023-04-24T08:27:27;2.03;;;1.70;;
2656;SDS011;1338;48.176;11.792;2023-04-24T08:29:55;1.67;;;1.57;;
2656;SDS011;1338;48.176;11.792;2023-04-24T08:32:26;1.70;;;1.60;;
2656;SDS011;1338;48.176;11.792;2023-04-24T08:34:55;1.57;;;1.47;;
2656;SDS011;1338;48.176;11.792;2023-04-24T08:37:23;4.30;;;1.50;;
2656;SDS011;1338;48.176;11.792;2023-04-24T08:39:53;1.63;;;1.53;;
2656;SDS011;1338;48.176;11.792;2023-04-24T08:42:21;2.13;;;1.20;;
2656;SDS011;1338;48.176;11.792;2023-04-24T08:44:50;1.67;;;1.57;;
2656;SDS011;1338;48.176;11.792;2023-04-24T08:47:18;1.40;;;1.30;;
2656;SDS011;1338;48.176;11.792;2023-04-24T08:49:49;1.63;;;1.53;;
2656;SDS011;1338;48.176;11.792;2023-04-24T08:52:18;1.97;;;1.77;;
2656;SDS011;1338;48.176;11.792;2023-04-24T08:54:48;2.00;;;1.47;;
2656;SDS011;1338;48.176;11.792;2023-04-24T08:57:17;1.50;;;1.40;;
2656;SDS011;1338;48.176;11.792;2023-04-24T08:59:45;2.23;;;1.70;;
2656;SDS011;1338;48.176;11.792;2023-04-24T09:02:14;1.93;;;1.83;;
2656;SDS011;1338;48.176;11.792;2023-04-24T09:04:44;2.00;;;1.90;;
2656;SDS011;1338;48.176;11.792;2023-04-24T09:07:16;2.00;;;1.80;;
2656;SDS011;1338;48.176;11.792;2023-04-24T09:09:45;2.20;;;2.10;;
2656;SDS011;1338;48.176;11.792;2023-04-24T09:12:13;2.43;;;2.00;;
2656;SDS011;1338;48.176;11.792;2023-04-24T09:14:41;2.27;;;2.10;;
2656;SDS011;1338;48.176;11.792;2023-04-24T09:17:11;2.30;;;2.10;;
2656;SDS011;1338;48.176;11.792;2023-04-24T09:19:40;2.77;;;2.17;;
2656;SDS011;1338;48.176;11.792;2023-04-24T09:22:09;2.57;;;2.37;;
2656;SDS011;1338;48.176;11.792;2023-04-24T09:24:39;2.60;;;2.40;;
2656;SDS011;1338;48.176;11.792;2023-04-24T09:27:07;2.83;;;2.40;;
2656;SDS011;1338;48.176;11.792;2023-04-24T09:29:38;2.70;;;2.50;;
2656;SDS011;1338;48.176;11.792;2023-04-24T09:32:19;3.17;;;2.80;;
2656;SDS011;1338;48.176;11.792;2023-04-24T09:34:49;2.50;;;2.30;;
2656;SDS011;1338;48.176;11.792;2023-04-24T09:37:27;2.43;;;2.27;;
2656;SDS011;1338;48.176;11.792;2023-04-24T09:42:45;2.70;;;2.43;;
2656;SDS011;1338;48.176;11.792;2023-04-24T09:45:18;2.30;;;2.13;;
2656;SDS011;1338;48.176;11.792;2023-04-24T09:47:51;2.40;;;2.20;;
2656;SDS011;1338;48.176;11.792;2023-04-24T09:50:20;2.50;;;2.30;;
2656;SDS011;1338;48.176;11.792;2023-04-24T09:52:55;2.50;;;2.30;;
2656;SDS011;1338;48.176;11.792;2023-04-24T09:55:26;2.53;;;2.33;;
2656;SDS011;1338;48.176;11.792;2023-04-24T09:57:55;2.73;;;2.53;;
2656;SDS011;1338;48.176;11.792;2023-04-24T10:00:26;3.00;;;2.77;;
2656;SDS011;1338;48.176;11.792;2023-04-24T10:02:56;3.07;;;2.87;;
2656;SDS011;1338;48.176;11.792;2023-04-24T10:05:29;3.07;;;2.77;;
2656;SDS011;1338;48.176;11.792;2023-04-24T10:08:02;2.80;;;2.60;;
2656;SDS011;1338;48.176;11.792;2023-04-24T10:10:34;3.03;;;2.60;;
2656;SDS011;1338;48.176;11.792;2023-04-24T10:13:06;2.90;;;2.70;;
2656;SDS011;1338;48.176;11.792;2023-04-24T10:15:35;2.93;;;2.73;;
2656;SDS011;1338;48.176;11.792;2023-04-24T10:18:05;3.03;;;2.83;;
2656;SDS011;1338;48.176;11.792;2023-04-24T10:20:35;3.00;;;2.80;;
2656;SDS011;1338;48.176;11.792;2023-04-24T10:23:04;2.90;;;2.70;;
2656;SDS011;1338;48.176;11.792;2023-04-24T10:25:34;2.77;;;2.57;;
2656;SDS011;1338;48.176;11.792;2023-04-24T10:28:03;3.20;;;3.00;;
2656;SDS011;1338;48.176;11.792;2023-04-24T10:30:35;3.10;;;2.90;;
2656;SDS011;1338;48.176;11.792;2023-04-24T10:33:04;3.00;;;2.70;;
2656;SDS011;1338;48.176;11.792;2023-04-24T10:35:34;3.10;;;2.90;;
2656;SDS011;1338;48.176;11.792;2023-04-24T10:38:06;3.27;;;3.07;;
2656;SDS011;1338;48.176;11.792;2023-04-24T10:40:38;3.13;;;2.83;;
2656;SDS011;1338;48.176;11.792;2023-04-24T10:43:06;3.30;;;3.10;;
2656;SDS011;1338;48.176;11.792;2023-04-24T10:45:37;3.10;;;2.70;;
2656;SDS011;1338;48.176;11.792;2023-04-24T10:48:06;3.70;;;3.40;;
2656;SDS011;1338;48.176;11.792;2023-04-24T10:50:44;4.50;;;2.97;;
2656;SDS011;1338;48.176;11.792;2023-04-24T10:53:14;3.03;;;2.83;;
2656;SDS011;1338;48.176;11.792;2023-04-24T10:55:46;3.37;;;2.83;;
2656;SDS011;1338;48.176;11.792;2023-04-24T10:58:15;3.60;;;3.30;;
2656;SDS011;1338;48.176;11.792;2023-04-24T11:00:44;4.50;;;2.80;;
2656;SDS011;1338;48.176;11.792;2023-04-24T11:03:24;3.00;;;2.80;;
2656;SDS011;1338;48.176;11.792;2023-04-24T11:05:58;3.40;;;2.70;;
2656;SDS011;1338;48.176;11.792;2023-04-24T11:08:32;3.40;;;3.10;;
2656;SDS011;1338;48.176;11.792;2023-04-24T11:11:09;3.13;;;2.37;;
2656;SDS011;1338;48.176;11.792;2023-04-24T11:14:01;2.00;;;1.80;;
2656;SDS011;1338;48.176;11.792;2023-04-24T11:16:31;2.73;;;2.53;;
2656;SDS011;1338;48.176;11.792;2023-04-24T11:19:01;2.40;;;2.20;;
2656;SDS011;1338;48.176;11.792;2023-04-24T11:21:31;2.60;;;2.40;;
2656;SDS011;1338;48.176;11.792;2023-04-24T11:26:53;2.87;;;2.67;;
2656;SDS011;1338;48.176;11.792;2023-04-24T11:29:23;3.07;;;2.87;;
2656;SDS011;1338;48.176;11.792;2023-04-24T11:32:16;3.00;;;2.80;;
2656;SDS011;1338;48.176;11.792;2023-04-24T11:34:46;3.50;;;2.83;;
2656;SDS011;1338;48.176;11.792;2023-04-24T11:37:15;2.70;;;2.50;;
2656;SDS011;1338;48.176;11.792;2023-04-24T11:39:44;2.70;;;2.50;;
2656;SDS011;1338;48.176;11.792;2023-04-24T11:42:15;2.77;;;2.57;;
2656;SDS011;1338;48.176;11.792;2023-04-24T11:44:43;3.07;;;2.77;;
2656;SDS011;1338;48.176;11.792;2023-04-24T11:47:13;3.13;;;2.93;;
2656;SDS011;1338;48.176;11.792;2023-04-24T11:49:42;3.10;;;2.90;;
2656;SDS011;1338;48.176;11.792;2023-04-24T11:52:10;3.03;;;2.80;;
2656;SDS011;1338;48.176;11.792;2023-04-24T11:54:38;3.40;;;3.10;;
2656;SDS011;1338;48.176;11.792;2023-04-24T11:57:16;2.90;;;2.70;;
2656;SDS011;1338;48.176;11.792;2023-04-24T11:59:48;3.30;;;2.60;;
2656;SDS011;1338;48.176;11.792;2023-04-24T12:02:20;2.30;;;2.20;;
2656;SDS011;1338;48.176;11.792;2023-04-24T12:04:49;2.20;;;2.10;;
2656;SDS011;1338;48.176;11.792;2023-04-24T12:07:18;2.40;;;2.30;;
2656;SDS011;1338;48.176;11.792;2023-04-24T12:09:48;2.50;;;2.27;;
2656;SDS011;1338;48.176;11.792;2023-04-24T12:12:19;2.57;;;2.37;;
2656;SDS011;1338;48.176;11.792;2023-04-24T12:14:47;4.30;;;2.77;;
2656;SDS011;1338;48.176;11.792;2023-04-24T12:17:17;2.40;;;2.20;;
2656;SDS011;1338;48.176;11.792;2023-04-24T12:19:45;2.83;;;2.47;;
2656;SDS011;1338;48.176;11.792;2023-04-24T12:22:14;2.57;;;2.37;;
2656;SDS011;1338;48.176;11.792;2023-04-24T12:24:55;2.70;;;2.50;;
2656;SDS011;1338;48.176;11.792;2023-04-24T12:27:25;2.80;;;2.60;;
2656;SDS011;1338;48.176;11.792;2023-04-24T12:29:55;3.30;;;3.10;;
2656;SDS011;1338;48.176;11.792;2023-04-24T12:32:24;3.03;;;2.80;;
2656;SDS011;1338;48.176;11.792;2023-04-24T12:34:53;2.80;;;2.60;;
2656;SDS011;1338;48.176;11.792;2023-04-24T12:37:23;3.70;;;2.70;;
2656;SDS011;1338;48.176;11.792;2023-04-24T12:39:59;3.10;;;2.87;;
2656;SDS011;1338;48.176;11.792;2023-04-24T12:42:30;4.13;;;3.13;;
2656;SDS011;1338;48.176;11.792;2023-04-24T12:44:58;3.20;;;2.90;;
2656;SDS011;1338;48.176;11.792;2023-04-24T12:47:28;3.20;;;2.90;;
2656;SDS011;1338;48.176;11.792;2023-04-24T12:49:56;2.93;;;2.73;;
2656;SDS011;1338;48.176;11.792;2023-04-24T12:52:24;2.90;;;2.60;;
2656;SDS011;1338;48.176;11.792;2023-04-24T12:54:54;3.10;;;2.80;;
2656;SDS011;1338;48.176;11.792;2023-04-24T12:57:25;2.50;;;2.27;;
2656;SDS011;1338;48.176;11.792;2023-04-24T12:59:56;2.83;;;2.63;;
2656;SDS011;1338;48.176;11.792;2023-04-24T13:02:26;2.60;;;2.40;;
2656;SDS011;1338;48.176;11.792;2023-04-24T13:04:56;3.23;;;2.50;;
2656;SDS011;1338;48.176;11.792;2023-04-24T13:07:24;2.60;;;2.40;;
2656;SDS011;1338;48.176;11.792;2023-04-24T13:09:53;3.20;;;2.53;;
2656;SDS011;1338;48.176;11.792;2023-04-24T13:12:22;2.77;;;2.57;;
2656;SDS011;1338;48.176;11.792;2023-04-24T13:14:52;2.93;;;2.73;;
2656;SDS011;1338;48.176;11.792;2023-04-24T13:17:21;2.20;;;2.10;;
2656;SDS011;1338;48.176;11.792;2023-04-24T13:19:50;2.90;;;2.70;;
2656;SDS011;1338;48.176;11.792;2023-04-24T13:22:20;3.07;;;2.87;;
2656;SDS011;1338;48.176;11.792;2023-04-24T13:24:48;2.80;;;2.60;;
2656;SDS011;1338;48.176;11.792;2023-04-24T13:27:16;2.70;;;2.50;;
2656;SDS011;1338;48.176;11.792;2023-04-24T13:29:45;4.03;;;2.57;;
2656;SDS011;1338;48.176;11.792;2023-04-24T13:32:13;3.20;;;3.00;;
2656;SDS011;1338;48.176;11.792;2023-04-24T13:34:43;3.63;;;3.23;;
2656;SDS011;1338;48.176;11.792;2023-04-24T13:37:11;3.63;;;3.33;;
2656;SDS011;1338;48.176;11.792;2023-04-24T13:39:40;4.43;;;3.60;;
2656;SDS011;1338;48.176;11.792;2023-04-24T13:42:08;3.03;;;2.80;;
2656;SDS011;1338;48.176;11.792;2023-04-24T13:44:37;3.60;;;3.30;;
2656;SDS011;1338;48.176;11.792;2023-04-24T13:47:05;3.00;;;2.80;;
2656;SDS011;1338;48.176;11.792;2023-04-24T13:49:33;3.37;;;3.07;;
2656;SDS011;1338;48.176;11.792;2023-04-24T13:52:03;3.33;;;3.03;;
2656;SDS011;1338;48.176;11.792;2023-04-24T13:54:31;3.00;;;2.70;;
2656;SDS011;1338;48.176;11.792;2023-04-24T13:56:59;3.13;;;2.93;;
2656;SDS011;1338;48.176;11.792;2023-04-24T13:59:29;3.40;;;3.20;;
2656;SDS011;1338;48.176;11.792;2023-04-24T14:01:57;2.93;;;2.63;;
2656;SDS011;1338;48.176;11.792;2023-04-24T14:04:25;3.63;;;3.10;;
2656;SDS011;1338;48.176;11.792;2023-04-24T14:06:54;4.13;;;2.97;;
2656;SDS011;1338;48.176;11.792;2023-04-24T14:09:23;3.90;;;3.53;;
2656;SDS011;1338;48.176;11.792;2023-04-24T14:11:52;3.30;;;3.10;;
2656;SDS011;1338;48.176;11.792;2023-04-24T14:14:20;3.33;;;3.13;;
2656;SDS011;1338;48.176;11.792;2023-04-24T14:16:48;2.83;;;2.63;;
2656;SDS011;1338;48.176;11.792;2023-04-24T14:19:16;3.03;;;2.83;;
2656;SDS011;1338;48.176;11.792;2023-04-24T14:21:44;3.40;;;3.10;;
2656;SDS011;1338;48.176;11.792;2023-04-24T14:24:12;3.20;;;3.00;;
2656;SDS011;1338;48.176;11.792;2023-04-24T14:26:42;3.20;;;3.00;;
2656;SDS011;1338;48.176;11.792;2023-04-24T14:29:10;3.30;;;3.00;;
2656;SDS011;1338;48.176;11.792;2023-04-24T14:31:41;3.60;;;3.10;;
2656;SDS011;1338;48.176;11.792;2023-04-24T14:34:09;2.90;;;2.70;;
2656;SDS011;1338;48.176;11.792;2023-04-24T14:36:37;3.30;;;3.10;;
2656;SDS011;1338;48.176;11.792;2023-04-24T14:39:05;4.13;;;3.10;;
2656;SDS011;1338;48.176;11.792;2023-04-24T14:41:34;3.10;;;2.90;;
2656;SDS011;1338;48.176;11.792;2023-04-24T14:44:04;2.87;;;2.67;;
2656;SDS011;1338;48.176;11.792;2023-04-24T14:46:33;3.50;;;3.20;;
2656;SDS011;1338;48.176;11.792;2023-04-24T14:49:01;3.07;;;2.83;;
2656;SDS011;1338;48.176;11.792;2023-04-24T14:51:29;3.10;;;2.90;;
2656;SDS011;1338;48.176;11.792;2023-04-24T14:53:58;4.63;;;3.20;;
2656;SDS011;1338;48.176;11.792;2023-04-24T14:56:26;3.10;;;2.80;;
2656;SDS011;1338;48.176;11.792;2023-04-24T14:58:54;4.93;;;2.73;;
2656;SDS011;1338;48.176;11.792;2023-04-24T15:01:24;2.70;;;2.50;;
2656;SDS011;1338;48.176;11.792;2023-04-24T15:03:52;2.50;;;2.30;;
2656;SDS011;1338;48.176;11.792;2023-04-24T15:06:20;3.10;;;2.90;;
2656;SDS011;1338;48.176;11.792;2023-04-24T15:08:48;3.10;;;2.90;;
2656;SDS011;1338;48.176;11.792;2023-04-24T15:11:16;3.53;;;3.27;;
2656;SDS011;1338;48.176;11.792;2023-04-24T15:13:44;3.77;;;2.70;;
2656;SDS011;1338;48.176;11.792;2023-04-24T15:16:13;2.83;;;2.60;;
2656;SDS011;1338;48.176;11.792;2023-04-24T15:18:43;3.27;;;3.00;;
2656;SDS011;1338;48.176;11.792;2023-04-24T15:21:12;2.80;;;2.60;;
2656;SDS011;1338;48.176;11.792;2023-04-24T15:23:41;2.83;;;2.63;;